Time;durP1;ratioP1;P1;durP2;ratioP2;P2;SDS_P1;SDS_P2;PMS_P1;PMS_P2;Temp;Humidity;BMP_temperature;BMP_pressure;BME280_temperature;BME280_humidity;BME280_pressure;Samples;Min_cycle;Max_cycle;Signal;HPM_P1;HPM_P2
2023/03/18 00:01:48;;;;;;;18.90;11.20;;;23.00;34.10;;;;;;6097366;28;83953;-71
2023/03/18 00:04:50;;;;;;;20.77;11.77;;;23.00;34.10;;;;;;6096376;28;84776;-64
2023/03/18 00:07:50;;;;;;;20.52;10.88;;;23.00;34.10;;;;;;6096878;28;83012;-64
2023/03/18 00:10:51;;;;;;;22.58;11.80;;;23.00;34.10;;;;;;6096112;28;82948;-64
2023/03/18 00:13:52;;;;;;;19.42;10.90;;;23.00;34.20;;;;;;6097561;28;83009;-64
2023/03/18 00:16:52;;;;;;;19.35;10.80;;;23.00;34.20;;;;;;6097591;28;82961;-63
2023/03/18 00:19:53;;;;;;;17.10;10.10;;;23.00;34.10;;;;;;6098409;28;83015;-65
2023/03/18 00:22:56;;;;;;;19.17;10.77;;;23.00;34.30;;;;;;6140657;28;83259;-64
2023/03/18 00:25:57;;;;;;;16.02;9.70;;;23.00;34.30;;;;;;6153461;28;83128;-63
2023/03/18 00:28:57;;;;;;;16.05;10.52;;;23.00;34.30;;;;;;6100781;28;81705;-64
2023/03/18 00:31:58;;;;;;;20.50;11.73;;;23.00;34.30;;;;;;6098661;28;83015;-63
2023/03/18 00:35:00;;;;;;;20.63;10.93;;;23.00;34.40;;;;;;6096845;28;85539;-64
2023/03/18 00:38:02;;;;;;;18.25;10.32;;;23.00;34.50;;;;;;6097631;28;83818;-66
2023/03/18 00:41:10;;;;;;;16.90;10.30;;;23.00;34.40;;;;;;6097610;28;83076;-65
2023/03/18 00:44:13;;;;;;;21.20;11.27;;;23.00;34.40;;;;;;6096895;28;83381;-67
2023/03/18 00:47:14;;;;;;;17.20;10.32;;;23.00;34.50;;;;;;6094896;28;83312;-67
2023/03/18 00:50:14;;;;;;;17.40;10.20;;;23.00;35.20;;;;;;6098455;28;83028;-68
2023/03/18 00:53:15;;;;;;;19.05;10.82;;;23.00;34.50;;;;;;6097245;28;84297;-68
2023/03/18 00:56:16;;;;;;;16.77;10.15;;;22.90;34.40;;;;;;6096176;28;84818;-69
2023/03/18 00:59:18;;;;;;;17.40;9.85;;;22.90;34.50;;;;;;6095522;28;89265;-68
2023/03/18 01:02:18;;;;;;;16.88;10.43;;;22.90;34.60;;;;;;6101821;28;83360;-67
2023/03/18 01:05:19;;;;;;;16.27;9.32;;;22.90;34.70;;;;;;6095942;28;82818;-66
2023/03/18 01:08:20;;;;;;;17.77;9.82;;;22.90;34.90;;;;;;6097752;28;85546;-66
2023/03/18 01:11:21;;;;;;;17.50;9.30;;;22.90;34.90;;;;;;6098775;28;83280;-63
2023/03/18 01:14:22;;;;;;;18.52;9.52;;;22.90;34.80;;;;;;6099362;28;83170;-64
2023/03/18 01:17:22;;;;;;;17.30;9.27;;;22.90;34.90;;;;;;6098482;28;81264;-64
2023/03/18 01:20:24;;;;;;;17.20;9.88;;;22.90;34.70;;;;;;6093184;28;83322;-65
2023/03/18 01:23:29;;;;;;;17.00;9.32;;;22.90;34.80;;;;;;6081939;28;80604;-65
2023/03/18 01:26:29;;;;;;;15.50;8.57;;;22.90;34.90;;;;;;6100673;28;82114;-65
2023/03/18 01:29:33;;;;;;;16.65;9.63;;;22.90;35.00;;;;;;6098395;28;82846;-65
2023/03/18 01:32:34;;;;;;;15.60;8.95;;;22.90;34.90;;;;;;6097629;28;83515;-65
2023/03/18 01:35:34;;;;;;;15.27;8.57;;;22.90;35.20;;;;;;6101418;28;80514;-66
2023/03/18 01:38:35;;;;;;;13.00;8.07;;;22.90;35.10;;;;;;6081886;28;83453;-64
2023/03/18 01:41:43;;;;;;;15.55;8.55;;;22.90;35.20;;;;;;6098981;28;83289;-63
2023/03/18 01:44:47;;;;;;;14.02;8.60;;;22.90;35.10;;;;;;6097361;28;83742;-62
2023/03/18 01:47:48;;;;;;;16.60;9.50;;;22.90;35.10;;;;;;6086955;28;83156;-64
2023/03/18 01:50:51;;;;;;;15.13;8.85;;;22.80;35.20;;;;;;6098394;28;83463;-65
2023/03/18 01:53:51;;;;;;;13.00;8.52;;;22.90;35.10;;;;;;6100062;28;82429;-65
2023/03/18 01:56:52;;;;;;;17.55;9.05;;;22.80;34.80;;;;;;6097827;28;81584;-65
2023/03/18 01:59:53;;;;;;;14.45;8.70;;;22.80;34.80;;;;;;6097461;28;83535;-64
2023/03/18 02:02:53;;;;;;;17.58;9.90;;;22.80;35.20;;;;;;6096990;28;83507;-62
2023/03/18 02:05:55;;;;;;;18.23;9.73;;;22.80;35.10;;;;;;6098219;28;80840;-64
2023/03/18 02:08:56;;;;;;;13.48;8.65;;;22.80;35.00;;;;;;6097098;28;83256;-64
2023/03/18 02:11:57;;;;;;;16.00;9.27;;;22.80;35.10;;;;;;6098099;28;83175;-65
2023/03/18 02:14:57;;;;;;;15.63;8.85;;;22.80;35.20;;;;;;6097237;28;82969;-63
2023/03/18 02:17:58;;;;;;;14.43;8.13;;;22.80;35.00;;;;;;6097865;28;83280;-63
2023/03/18 02:20:59;;;;;;;13.77;8.48;;;22.80;34.90;;;;;;6098911;28;83748;-63
2023/03/18 02:24:00;;;;;;;15.05;8.82;;;22.80;34.90;;;;;;6097068;28;82715;-62
2023/03/18 02:27:01;;;;;;;14.60;8.98;;;22.80;35.30;;;;;;6097848;28;83073;-61
2023/03/18 02:30:10;;;;;;;16.25;9.02;;;22.80;35.20;;;;;;6098091;28;82870;-63
2023/03/18 02:33:12;;;;;;;17.17;9.90;;;22.80;35.20;;;;;;6095118;28;86729;-63
2023/03/18 02:36:12;;;;;;;16.17;9.52;;;22.80;35.20;;;;;;6080586;28;81681;-62
2023/03/18 02:39:17;;;;;;;17.25;9.25;;;22.80;35.00;;;;;;6081083;28;82722;-61
2023/03/18 02:42:18;;;;;;;16.77;9.15;;;22.90;35.00;;;;;;6096403;28;83106;-61
2023/03/18 02:45:24;;;;;;;17.20;9.20;;;22.80;34.90;;;;;;6098965;28;82214;-62
2023/03/18 02:48:37;;;;;;;15.77;9.00;;;22.80;35.60;;;;;;6101245;28;81908;-63
2023/03/18 02:51:39;;;;;;;17.02;9.40;;;22.80;35.00;;;;;;6101549;28;87524;-63
2023/03/18 02:54:40;;;;;;;16.73;9.75;;;22.80;35.00;;;;;;6101864;28;80710;-63
2023/03/18 02:57:41;;;;;;;16.95;8.90;;;22.80;35.00;;;;;;6095513;28;83702;-61
2023/03/18 03:00:42;;;;;;;15.77;9.60;;;22.80;35.10;;;;;;6101243;28;84627;-61
2023/03/18 03:03:42;;;;;;;17.48;9.52;;;22.80;35.10;;;;;;6101171;28;81486;-62
2023/03/18 03:06:45;;;;;;;17.75;9.98;;;22.80;35.20;;;;;;6101231;28;80651;-60
2023/03/18 03:09:47;;;;;;;14.60;8.88;;;22.80;35.10;;;;;;6096817;28;83780;-67
2023/03/18 03:12:49;;;;;;;19.40;10.23;;;22.80;35.40;;;;;;6100870;28;81814;-66
2023/03/18 03:15:51;;;;;;;14.40;8.73;;;22.70;35.10;;;;;;6096488;28;83142;-65
2023/03/18 03:18:51;;;;;;;14.77;9.32;;;22.80;35.40;;;;;;6102734;28;82779;-64
2023/03/18 03:21:52;;;;;;;15.57;9.77;;;22.70;35.20;;;;;;6101447;28;80945;-65
2023/03/18 03:24:53;;;;;;;18.33;9.68;;;22.80;35.10;;;;;;6100912;28;83139;-65
2023/03/18 03:27:53;;;;;;;17.23;10.02;;;22.80;35.10;;;;;;6101714;28;81925;-67
2023/03/18 03:30:54;;;;;;;16.73;10.00;;;22.70;34.90;;;;;;6097428;28;84713;-68
2023/03/18 03:33:55;;;;;;;17.77;9.88;;;22.70;34.60;;;;;;6098999;28;84282;-66
2023/03/18 03:36:55;;;;;;;15.15;9.50;;;22.70;34.60;;;;;;6101454;28;81710;-66
2023/03/18 03:39:58;;;;;;;16.73;9.57;;;22.70;34.50;;;;;;6091051;28;82892;-68
2023/03/18 03:42:59;;;;;;;16.92;9.73;;;22.70;34.50;;;;;;6100723;28;81583;-69
2023/03/18 03:45:59;;;;;;;15.57;9.52;;;22.70;34.50;;;;;;6082894;28;82207;-68
2023/03/18 03:49:00;;;;;;;18.17;10.38;;;22.70;34.60;;;;;;6101981;28;81125;-66
2023/03/18 03:52:01;;;;;;;16.48;9.65;;;22.70;34.70;;;;;;6097309;28;83234;-65
2023/03/18 03:55:03;;;;;;;15.45;9.65;;;22.70;35.10;;;;;;6099889;28;85118;-64
2023/03/18 03:58:03;;;;;;;17.38;9.93;;;22.70;34.30;;;;;;6099223;28;81427;-65
2023/03/18 04:01:05;;;;;;;15.30;9.30;;;22.70;34.70;;;;;;6098894;28;81553;-66
2023/03/18 04:04:06;;;;;;;16.77;9.55;;;22.70;34.60;;;;;;6100459;28;81628;-66
2023/03/18 04:07:07;;;;;;;15.85;8.80;;;22.70;34.60;;;;;;6099198;28;85961;-66
2023/03/18 04:10:08;;;;;;;16.27;9.23;;;22.70;34.60;;;;;;6101122;28;82797;-66
2023/03/18 04:13:10;;;;;;;15.85;10.00;;;22.70;34.60;;;;;;6100978;28;83123;-66
2023/03/18 04:16:11;;;;;;;16.67;9.95;;;22.70;34.60;;;;;;6096399;28;83018;-65
2023/03/18 04:19:11;;;;;;;15.88;9.48;;;22.70;34.20;;;;;;6100799;28;82978;-62
2023/03/18 04:22:12;;;;;;;15.30;8.98;;;22.70;33.90;;;;;;6101591;28;80515;-62
2023/03/18 04:25:15;;;;;;;15.00;10.00;;;22.80;34.10;;;;;;6100843;28;83554;-65
2023/03/18 04:28:16;;;;;;;16.80;9.73;;;22.80;33.80;;;;;;6096185;28;86569;-65
2023/03/18 04:31:16;;;;;;;18.63;9.80;;;22.90;33.80;;;;;;6100726;28;82032;-67
2023/03/18 04:34:17;;;;;;;16.15;9.05;;;22.90;33.70;;;;;;6099871;28;87642;-66
2023/03/18 04:37:19;;;;;;;16.77;9.85;;;23.00;33.80;;;;;;6099031;27;81796;-66
2023/03/18 04:40:21;;;;;;;16.27;9.35;;;23.10;33.80;;;;;;6091268;28;83193;-64
2023/03/18 04:43:23;;;;;;;17.00;9.70;;;23.10;33.60;;;;;;6098262;28;82287;-64
2023/03/18 04:46:28;;;;;;;14.50;9.52;;;23.10;33.60;;;;;;6126025;28;83132;-62
2023/03/18 04:49:30;;;;;;;13.97;9.47;;;23.20;33.60;;;;;;6167026;28;83681;-62
2023/03/18 04:52:31;;;;;;;16.70;9.77;;;23.20;33.60;;;;;;6099073;28;82497;-61
2023/03/18 04:55:32;;;;;;;17.40;10.05;;;23.30;33.50;;;;;;6099376;28;84236;-63
2023/03/18 04:58:35;;;;;;;14.27;9.05;;;23.30;33.30;;;;;;6097109;28;82731;-63
2023/03/18 05:01:45;;;;;;;17.55;9.30;;;23.30;33.40;;;;;;6099448;28;86155;-68
2023/03/18 05:04:48;;;;;;;13.30;8.55;;;23.30;33.30;;;;;;6083592;28;81390;-68
2023/03/18 05:07:49;;;;;;;17.05;9.60;;;23.30;33.20;;;;;;6137456;28;83275;-66
2023/03/18 05:10:52;;;;;;;21.63;10.02;;;23.40;33.30;;;;;;6158231;28;83326;-66
2023/03/18 05:13:53;;;;;;;15.43;8.48;;;23.40;33.50;;;;;;6096053;28;83141;-66
2023/03/18 05:16:54;;;;;;;12.68;8.35;;;23.40;33.70;;;;;;6099177;28;84713;-65
2023/03/18 05:19:56;;;;;;;13.52;7.07;;;23.40;33.90;;;;;;6142718;28;82769;-63
2023/03/18 05:22:57;;;;;;;12.90;7.60;;;23.50;34.20;;;;;;6145131;28;82672;-63
2023/03/18 05:26:15;;;;;;;13.15;7.10;;;23.50;34.30;;;;;;6148643;28;83531;-63
2023/03/18 05:29:18;;;;;;;12.98;7.20;;;23.50;34.40;;;;;;6191910;28;81855;-61
2023/03/18 05:32:42;;;;;;;13.93;7.35;;;23.50;34.60;;;;;;6190123;28;81956;-60
2023/03/18 05:35:44;;;;;;;14.23;7.25;;;23.60;34.90;;;;;;6190083;28;82482;-60
2023/03/18 05:38:44;;;;;;;13.13;7.55;;;23.60;34.90;;;;;;6192059;28;83181;-59
2023/03/18 05:41:45;;;;;;;15.38;6.75;;;23.60;34.80;;;;;;6194260;28;81720;-59
2023/03/18 05:44:50;;;;;;;9.77;6.70;;;23.60;35.00;;;;;;6192153;28;80347;-59
2023/03/18 05:47:56;;;;;;;11.52;7.28;;;23.60;34.90;;;;;;6193061;28;82566;-60
2023/03/18 05:50:57;;;;;;;12.95;7.20;;;23.60;34.90;;;;;;6191633;28;83609;-64
2023/03/18 05:54:00;;;;;;;14.90;7.13;;;23.60;34.80;;;;;;6193477;28;82801;-67
2023/03/18 05:57:06;;;;;;;11.95;7.50;;;23.60;34.70;;;;;;6195112;28;80604;-73
2023/03/18 06:00:07;;;;;;;20.23;7.68;;;23.60;34.70;;;;;;6199884;28;82091;-67
2023/03/18 06:03:17;;;;;;;13.38;8.07;;;23.60;35.00;;;;;;6200877;28;81078;-70
2023/03/18 06:06:18;;;;;;;11.40;7.03;;;23.60;35.00;;;;;;6195141;28;83083;-70
2023/03/18 06:09:19;;;;;;;11.23;6.78;;;23.60;34.90;;;;;;6199891;28;82521;-71
2023/03/18 06:12:22;;;;;;;11.05;6.53;;;23.50;34.70;;;;;;6193213;28;82991;-64
2023/03/18 06:15:24;;;;;;;10.82;6.75;;;23.50;34.60;;;;;;6195743;28;82349;-60
2023/03/18 06:18:25;;;;;;;12.77;7.18;;;23.50;34.70;;;;;;6198050;28;83790;-61
2023/03/18 06:21:26;;;;;;;19.65;8.07;;;23.50;34.20;;;;;;6200255;28;83732;-65
2023/03/18 06:24:27;;;;;;;18.25;7.03;;;23.50;34.70;;;;;;6197121;28;85109;-62
2023/03/18 06:27:29;;;;;;;16.55;7.57;;;23.40;35.70;;;;;;6197885;28;80596;-64
2023/03/18 06:30:32;;;;;;;10.75;7.15;;;23.50;36.10;;;;;;6074177;28;83848;-66
2023/03/18 06:33:33;;;;;;;11.05;6.78;;;23.50;36.30;;;;;;6094306;28;83311;-74
2023/03/18 06:36:33;;;;;;;12.77;7.25;;;23.50;37.10;;;;;;6100519;28;83301;-75
2023/03/18 06:39:37;;;;;;;14.23;7.57;;;23.40;36.00;;;;;;6097313;28;83432;-68
2023/03/18 06:42:41;;;;;;;18.15;9.00;;;23.40;35.80;;;;;;6093473;28;86313;-65
2023/03/18 06:45:45;;;;;;;16.42;7.90;;;23.40;35.20;;;;;;6096738;28;83113;-67
2023/03/18 06:48:47;;;;;;;14.98;8.13;;;23.40;35.20;;;;;;6096486;28;83604;-67
2023/03/18 06:51:53;;;;;;;14.40;8.25;;;23.40;35.40;;;;;;6093813;28;82477;-66
2023/03/18 06:54:54;;;;;;;20.60;7.35;;;23.40;34.70;;;;;;6097511;28;83043;-62
2023/03/18 06:57:56;;;;;;;16.13;7.43;;;23.40;34.80;;;;;;6097465;28;84460;-65
2023/03/18 07:01:02;;;;;;;15.13;8.38;;;23.40;34.90;;;;;;6099467;28;82696;-69
2023/03/18 07:04:09;;;;;;;16.38;8.43;;;23.40;35.90;;;;;;6097796;28;83228;-69
2023/03/18 07:07:10;;;;;;;14.98;7.75;;;23.40;35.70;;;;;;6098900;28;84371;-69
2023/03/18 07:10:11;;;;;;;15.63;8.10;;;23.50;35.50;;;;;;6098190;28;83625;-70
2023/03/18 07:13:12;;;;;;;17.00;8.05;;;23.50;36.30;;;;;;6098434;28;83138;-72
2023/03/18 07:16:14;;;;;;;13.95;8.43;;;23.50;36.30;;;;;;6096982;28;82861;-71
2023/03/18 07:19:16;;;;;;;15.13;8.35;;;23.40;36.50;;;;;;6098642;28;83057;-64
2023/03/18 07:22:17;;;;;;;19.90;8.15;;;23.50;36.20;;;;;;6096700;28;81476;-69
2023/03/18 07:25:17;;;;;;;15.38;8.07;;;23.40;37.60;;;;;;6123120;28;80761;-70
2023/03/18 07:28:18;;;;;;;12.90;7.57;;;23.50;37.80;;;;;;6178453;28;80359;-70
2023/03/18 07:31:19;;;;;;;13.05;7.90;;;23.50;37.30;;;;;;6097373;28;82533;-74
2023/03/18 07:34:20;;;;;;;18.98;7.72;;;23.50;36.80;;;;;;6098152;28;83380;-69
2023/03/18 07:37:20;;;;;;;16.30;7.70;;;23.50;36.90;;;;;;6101047;28;81615;-68
2023/03/18 07:40:21;;;;;;;13.50;7.88;;;23.50;36.90;;;;;;6098355;28;80473;-65
2023/03/18 07:43:22;;;;;;;15.55;8.02;;;23.50;37.20;;;;;;6098301;28;80837;-63
2023/03/18 07:46:22;;;;;;;12.23;7.80;;;23.50;37.20;;;;;;6096543;28;80430;-68
2023/03/18 07:49:23;;;;;;;16.27;7.47;;;23.60;37.30;;;;;;6095727;28;87119;-67
2023/03/18 07:52:24;;;;;;;13.00;7.03;;;23.70;37.70;;;;;;6097396;28;82078;-67
2023/03/18 07:55:25;;;;;;;15.93;7.78;;;23.70;37.30;;;;;;6094511;28;80225;-62
2023/03/18 07:58:25;;;;;;;18.17;8.13;;;23.70;37.20;;;;;;6094970;28;81336;-64
2023/03/18 08:01:26;;;;;;;17.15;7.90;;;23.70;36.90;;;;;;6093338;28;81151;-63
2023/03/18 08:04:27;;;;;;;12.88;7.63;;;23.80;37.30;;;;;;6092532;28;80897;-62
2023/03/18 08:07:28;;;;;;;13.75;7.65;;;23.80;37.20;;;;;;6096584;28;81657;-62
2023/03/18 08:10:29;;;;;;;14.98;7.55;;;23.80;37.50;;;;;;6123669;28;83527;-62
2023/03/18 08:13:29;;;;;;;17.42;7.68;;;23.80;36.50;;;;;;6165021;28;81036;-61
2023/03/18 08:16:30;;;;;;;12.02;7.75;;;23.80;36.30;;;;;;6093034;28;80704;-63
2023/03/18 08:19:31;;;;;;;14.77;7.10;;;23.80;36.30;;;;;;6095774;28;81120;-64
2023/03/18 08:22:32;;;;;;;12.82;6.97;;;23.80;36.60;;;;;;6097490;28;79990;-62
2023/03/18 08:25:33;;;;;;;15.82;7.30;;;23.80;36.80;;;;;;6095018;28;85611;-62
2023/03/18 08:28:34;;;;;;;14.10;7.18;;;23.90;36.90;;;;;;6099577;28;80134;-65
2023/03/18 08:31:34;;;;;;;14.15;7.32;;;23.90;36.80;;;;;;6100144;28;81622;-65
2023/03/18 08:34:35;;;;;;;17.73;7.90;;;23.90;37.10;;;;;;6100176;28;82535;-69
2023/03/18 08:37:36;;;;;;;15.95;7.97;;;23.90;37.20;;;;;;6098651;28;80787;-72
2023/03/18 08:40:36;;;;;;;14.93;8.18;;;24.00;37.00;;;;;;6098722;28;80703;-66
2023/03/18 08:43:37;;;;;;;12.43;7.45;;;24.00;36.90;;;;;;6095715;28;80850;-64
2023/03/18 08:46:37;;;;;;;12.45;6.72;;;24.00;36.40;;;;;;6096072;28;82002;-62
2023/03/18 08:49:38;;;;;;;15.18;7.18;;;24.00;36.50;;;;;;6097100;28;80116;-61
2023/03/18 08:52:40;;;;;;;14.95;6.68;;;24.00;36.90;;;;;;6083637;28;81418;-67
2023/03/18 08:55:40;;;;;;;14.95;6.93;;;24.00;37.80;;;;;;6098638;28;80300;-62
2023/03/18 08:58:42;;;;;;;17.45;7.53;;;24.00;39.90;;;;;;6098605;28;80766;-61
2023/03/18 09:01:43;;;;;;;11.25;6.88;;;23.90;41.20;;;;;;6099293;28;80175;-63
2023/03/18 09:04:43;;;;;;;14.45;7.45;;;24.00;40.60;;;;;;6097732;28;80716;-64
2023/03/18 09:07:44;;;;;;;13.23;7.28;;;24.00;41.20;;;;;;6099507;28;82493;-62
2023/03/18 09:10:45;;;;;;;16.83;9.50;;;24.10;41.00;;;;;;6102406;28;81351;-58
2023/03/18 09:13:45;;;;;;;16.02;10.15;;;23.90;36.90;;;;;;6099943;28;80452;-58
2023/03/18 09:16:46;;;;;;;17.70;8.73;;;23.70;38.60;;;;;;6097879;28;84668;-68
2023/03/18 09:19:46;;;;;;;14.77;8.18;;;23.70;36.60;;;;;;6100595;28;82895;-64
2023/03/18 09:22:48;;;;;;;17.30;8.45;;;23.80;37.00;;;;;;6099791;28;80928;-65
2023/03/18 09:25:49;;;;;;;16.80;9.38;;;23.80;37.40;;;;;;6099506;28;80759;-66
2023/03/18 09:28:49;;;;;;;15.98;9.65;;;23.70;36.20;;;;;;6100934;28;80336;-68
2023/03/18 09:31:50;;;;;;;19.40;9.23;;;23.60;35.60;;;;;;6101022;28;80293;-59
2023/03/18 09:34:51;;;;;;;20.20;8.68;;;23.60;36.20;;;;;;6099317;28;81818;-61
2023/03/18 09:37:52;;;;;;;17.27;8.65;;;23.50;36.20;;;;;;6096738;28;81278;-60
2023/03/18 09:40:53;;;;;;;15.25;9.00;;;23.50;36.00;;;;;;6095321;28;80296;-60
2023/03/18 09:43:54;;;;;;;17.83;8.52;;;23.50;36.00;;;;;;6099841;28;82767;-60
2023/03/18 09:46:54;;;;;;;15.05;8.13;;;23.50;36.30;;;;;;6098017;28;81272;-60
2023/03/18 09:49:56;;;;;;;12.63;7.68;;;23.50;36.00;;;;;;6098524;28;80891;-59
2023/03/18 09:52:56;;;;;;;13.70;8.15;;;23.50;35.70;;;;;;6098190;28;80244;-59
2023/03/18 09:55:58;;;;;;;17.48;8.25;;;23.50;35.40;;;;;;6103224;28;80924;-58
2023/03/18 09:58:58;;;;;;;15.85;8.15;;;23.50;35.60;;;;;;6101940;28;80698;-57
2023/03/18 10:01:59;;;;;;;14.98;8.32;;;23.60;36.30;;;;;;6103081;28;80943;-59
2023/03/18 10:05:00;;;;;;;15.25;8.30;;;23.60;34.80;;;;;;6101242;28;80734;-60
2023/03/18 10:08:01;;;;;;;13.52;7.72;;;23.60;35.30;;;;;;6101229;28;80416;-56
2023/03/18 10:11:01;;;;;;;15.02;8.45;;;23.60;34.30;;;;;;6101174;28;80454;-65
2023/03/18 10:14:02;;;;;;;18.35;8.23;;;23.50;34.00;;;;;;6103546;28;80507;-63
2023/03/18 10:17:03;;;;;;;14.40;8.35;;;23.50;33.50;;;;;;6104014;28;80901;-59
2023/03/18 10:20:04;;;;;;;13.90;8.07;;;23.40;33.00;;;;;;6103667;28;80979;-59
2023/03/18 10:23:04;;;;;;;13.98;8.57;;;23.40;33.00;;;;;;6101346;28;81422;-61
2023/03/18 10:26:05;;;;;;;15.27;8.55;;;23.40;33.00;;;;;;6101242;28;81289;-58
2023/03/18 10:29:07;;;;;;;14.70;8.05;;;23.40;32.90;;;;;;6150718;28;81334;-58
2023/03/18 10:32:08;;;;;;;13.25;7.40;;;23.50;33.80;;;;;;6154339;28;80597;-67
2023/03/18 10:35:08;;;;;;;13.10;7.65;;;23.50;34.10;;;;;;6102955;28;80565;-65
2023/03/18 10:38:09;;;;;;;20.65;8.00;;;23.60;34.70;;;;;;6103307;28;80306;-59
2023/03/18 10:41:09;;;;;;;15.30;7.97;;;23.60;33.50;;;;;;6087529;28;82996;-57
2023/03/18 10:44:10;;;;;;;14.38;7.53;;;23.60;34.10;;;;;;6103078;28;80832;-57
2023/03/18 10:47:11;;;;;;;12.23;7.50;;;23.60;33.00;;;;;;6101073;28;81948;-66
2023/03/18 10:50:12;;;;;;;15.98;7.18;;;23.60;33.40;;;;;;6100511;28;80467;-58
2023/03/18 10:53:12;;;;;;;11.70;7.22;;;23.60;34.60;;;;;;6102614;28;80594;-55
2023/03/18 10:56:13;;;;;;;11.50;6.88;;;23.60;33.60;;;;;;6102846;28;80350;-58
2023/03/18 10:59:17;;;;;;;15.82;7.18;;;23.60;34.30;;;;;;6103081;28;80393;-59
2023/03/18 11:02:18;;;;;;;16.92;6.65;;;23.70;35.80;;;;;;6103070;28;81076;-62
2023/03/18 11:05:19;;;;;;;12.90;6.80;;;23.70;36.70;;;;;;6100660;28;81028;-60
2023/03/18 11:08:19;;;;;;;17.63;7.93;;;23.60;32.00;;;;;;6084745;28;81583;-59
2023/03/18 11:11:20;;;;;;;16.58;7.05;;;22.80;31.60;;;;;;6102300;28;82954;-60
2023/03/18 11:14:21;;;;;;;12.75;7.25;;;22.70;29.90;;;;;;6102305;28;82663;-60
2023/03/18 11:17:22;;;;;;;14.43;7.80;;;22.40;31.10;;;;;;6103117;28;82628;-60
2023/03/18 11:20:24;;;;;;;17.13;7.90;;;22.90;33.40;;;;;;6102520;28;80238;-61
2023/03/18 11:23:26;;;;;;;12.82;7.10;;;23.20;34.50;;;;;;6082973;28;81851;-57
2023/03/18 11:26:26;;;;;;;11.77;6.70;;;23.30;33.20;;;;;;6089866;28;80779;-54
2023/03/18 11:29:27;;;;;;;18.50;7.32;;;23.50;34.50;;;;;;6094008;28;80901;-56
2023/03/18 11:32:28;;;;;;;12.18;6.85;;;23.60;33.60;;;;;;6099159;28;80999;-57
2023/03/18 11:35:29;;;;;;;13.13;7.25;;;23.70;34.20;;;;;;6097009;28;82940;-56
2023/03/18 11:38:29;;;;;;;15.15;7.25;;;23.80;33.80;;;;;;6098048;28;80553;-56
2023/03/18 11:41:30;;;;;;;11.52;6.90;;;23.80;31.10;;;;;;6095479;28;80769;-57
2023/03/18 11:44:30;;;;;;;14.23;6.55;;;23.60;33.10;;;;;;6096792;28;84151;-62
2023/03/18 11:47:31;;;;;;;10.38;6.40;;;23.80;33.80;;;;;;6088073;28;80436;-55
2023/03/18 11:50:32;;;;;;;12.98;6.88;;;23.80;33.70;;;;;;6092922;27;80659;-54
2023/03/18 11:53:33;;;;;;;17.55;6.88;;;23.90;34.20;;;;;;6096648;28;80241;-75
2023/03/18 11:56:33;;;;;;;12.85;7.38;;;23.80;32.90;;;;;;6097644;28;80765;-62
2023/03/18 11:59:34;;;;;;;17.98;7.10;;;23.80;33.20;;;;;;6098207;28;82757;-62
2023/03/18 12:02:34;;;;;;;14.32;7.63;;;23.90;32.70;;;;;;6095116;28;81777;-65
2023/03/18 12:05:35;;;;;;;13.63;6.75;;;23.90;32.00;;;;;;6097854;28;87360;-63
2023/03/18 12:08:36;;;;;;;15.05;7.15;;;24.00;33.70;;;;;;6096242;28;80644;-62
2023/03/18 12:11:40;;;;;;;16.45;6.60;;;24.10;33.80;;;;;;6087500;28;85532;-60
2023/03/18 12:14:40;;;;;;;15.48;7.28;;;24.10;33.40;;;;;;6091642;28;81255;-60
2023/03/18 12:17:42;;;;;;;18.38;6.53;;;24.20;33.80;;;;;;6093970;28;80782;-60
2023/03/18 12:20:42;;;;;;;11.57;7.13;;;24.20;34.50;;;;;;6082049;28;82192;-59
2023/03/18 12:23:44;;;;;;;16.27;7.10;;;24.20;34.60;;;;;;6092032;28;81097;-64
2023/03/18 12:26:45;;;;;;;14.48;6.70;;;24.30;34.40;;;;;;6097547;28;80891;-60
2023/03/18 12:29:46;;;;;;;16.48;7.03;;;24.30;34.10;;;;;;6090216;28;83899;-65
2023/03/18 12:32:47;;;;;;;17.05;8.10;;;24.20;34.00;;;;;;6101265;28;80422;-66
2023/03/18 12:35:47;;;;;;;17.23;7.72;;;24.20;33.60;;;;;;6079125;28;87542;-68
2023/03/18 12:38:48;;;;;;;11.02;7.38;;;24.10;33.90;;;;;;6072504;28;80314;-60
2023/03/18 12:41:49;;;;;;;15.98;7.05;;;24.10;34.50;;;;;;6074150;28;81021;-63
2023/03/18 12:44:49;;;;;;;12.27;7.55;;;24.20;34.60;;;;;;6066616;28;84254;-59
2023/03/18 12:47:50;;;;;;;15.65;6.95;;;24.20;33.60;;;;;;6070958;28;81373;-59
2023/03/18 12:50:50;;;;;;;19.67;7.60;;;24.10;32.30;;;;;;6072677;28;82396;-59
2023/03/18 12:53:51;;;;;;;12.88;6.80;;;24.10;32.80;;;;;;6072431;28;81478;-65
2023/03/18 12:56:52;;;;;;;14.32;6.53;;;24.10;31.70;;;;;;6070270;28;83448;-61
2023/03/18 12:59:55;;;;;;;13.00;6.68;;;24.20;31.90;;;;;;6072321;28;81249;-64
2023/03/18 13:02:56;;;;;;;12.73;6.60;;;24.20;32.60;;;;;;6072303;28;80362;-61
2023/03/18 13:05:57;;;;;;;9.95;6.05;;;24.10;32.30;;;;;;6073183;28;83218;-63
2023/03/18 13:08:58;;;;;;;10.88;6.50;;;24.10;30.70;;;;;;6068389;28;83102;-63
2023/03/18 13:12:00;;;;;;;10.63;6.22;;;24.10;32.10;;;;;;6067675;28;80663;-63
2023/03/18 13:15:01;;;;;;;11.02;6.80;;;24.00;31.90;;;;;;6073166;28;80138;-64
2023/03/18 13:18:02;;;;;;;11.52;6.00;;;24.00;32.70;;;;;;6069661;28;85546;-66
2023/03/18 13:21:02;;;;;;;13.07;6.60;;;24.00;30.90;;;;;;6067714;28;80583;-65
2023/03/18 13:24:03;;;;;;;9.45;5.50;;;24.00;32.20;;;;;;6068699;28;80378;-77
2023/03/18 13:27:04;;;;;;;11.15;5.25;;;24.00;32.10;;;;;;6084751;28;83559;-73
2023/03/18 13:30:05;;;;;;;8.73;5.47;;;24.10;31.40;;;;;;6095153;28;80654;-67
2023/03/18 13:33:05;;;;;;;12.27;5.97;;;23.80;30.10;;;;;;6095408;28;81737;-67
2023/03/18 13:36:06;;;;;;;11.55;6.45;;;23.80;29.30;;;;;;6097875;28;80721;-63
2023/03/18 13:39:07;;;;;;;13.65;6.18;;;23.60;28.50;;;;;;6097074;28;82294;-71
2023/03/18 13:42:07;;;;;;;11.75;5.40;;;23.10;28.20;;;;;;6100291;28;80737;-71
2023/03/18 13:45:08;;;;;;;9.63;5.20;;;23.20;28.70;;;;;;6084280;28;83679;-65
2023/03/18 13:48:09;;;;;;;9.90;5.47;;;23.40;30.40;;;;;;6096820;28;82542;-71
2023/03/18 13:51:09;;;;;;;11.80;5.13;;;23.60;32.80;;;;;;6097500;28;83678;-68
2023/03/18 13:54:10;;;;;;;9.48;4.97;;;23.70;30.50;;;;;;6092666;28;82505;-68
2023/03/18 13:57:10;;;;;;;10.15;5.88;;;23.80;32.20;;;;;;6092153;28;80372;-71
2023/03/18 14:00:11;;;;;;;9.55;5.30;;;23.90;32.10;;;;;;6091987;28;80514;-68
2023/03/18 14:03:14;;;;;;;11.77;5.68;;;23.90;32.20;;;;;;6097235;28;87606;-76
2023/03/18 14:06:15;;;;;;;8.88;5.25;;;23.90;30.90;;;;;;6096050;28;81228;-73
2023/03/18 14:09:15;;;;;;;10.18;5.68;;;23.90;29.30;;;;;;6090729;28;81026;-72
2023/03/18 14:12:16;;;;;;;14.00;5.60;;;23.80;28.60;;;;;;6094677;28;83735;-68
2023/03/18 14:15:17;;;;;;;12.10;5.13;;;23.70;29.80;;;;;;6100437;28;80658;-74
2023/03/18 14:18:17;;;;;;;9.00;4.63;;;23.80;30.60;;;;;;6117343;28;80801;-66
2023/03/18 14:21:18;;;;;;;8.38;5.43;;;23.90;32.30;;;;;;6116729;28;82093;-66
2023/03/18 14:24:20;;;;;;;7.47;4.47;;;24.00;31.60;;;;;;6109913;28;80618;-68
2023/03/18 14:27:21;;;;;;;10.60;5.30;;;24.10;32.00;;;;;;6116472;28;80746;-66
2023/03/18 14:30:22;;;;;;;10.00;6.50;;;24.00;28.80;;;;;;6094313;28;80603;-69
2023/03/18 14:33:22;;;;;;;8.75;5.40;;;24.00;30.00;;;;;;6096717;28;81727;-73
2023/03/18 14:36:24;;;;;;;8.48;4.95;;;24.00;30.90;;;;;;6171309;28;80440;-68
2023/03/18 14:39:24;;;;;;;9.68;4.82;;;24.00;30.10;;;;;;6100665;28;80505;-69
2023/03/18 14:42:25;;;;;;;9.57;5.18;;;24.00;29.90;;;;;;6098137;28;80938;-69
2023/03/18 14:45:26;;;;;;;9.48;4.45;;;24.00;29.80;;;;;;6101715;28;80677;-67
2023/03/18 14:48:28;;;;;;;9.25;5.18;;;24.10;30.00;;;;;;6100930;28;80906;-68
2023/03/18 14:51:30;;;;;;;9.98;5.82;;;24.10;30.20;;;;;;6106115;28;80493;-71
2023/03/18 14:54:32;;;;;;;9.57;5.50;;;24.10;30.30;;;;;;6125803;28;80334;-74
2023/03/18 14:57:33;;;;;;;8.20;5.43;;;24.10;30.00;;;;;;6130816;28;79652;-70
2023/03/18 15:00:33;;;;;;;15.82;5.80;;;24.10;30.70;;;;;;6126949;28;80768;-70
2023/03/18 15:03:34;;;;;;;10.15;5.32;;;24.10;30.00;;;;;;6228536;28;79958;-71
2023/03/18 15:06:34;;;;;;;9.82;4.35;;;24.00;30.50;;;;;;6114838;28;82277;-74
2023/03/18 15:09:35;;;;;;;10.32;5.15;;;24.00;30.30;;;;;;6103092;28;80763;-68
2023/03/18 15:12:36;;;;;;;12.60;4.97;;;24.00;30.60;;;;;;6102508;28;80964;-69
2023/03/18 15:15:36;;;;;;;7.88;4.55;;;24.00;30.90;;;;;;6103863;28;80413;-72
2023/03/18 15:18:37;;;;;;;10.02;4.85;;;23.90;29.90;;;;;;6102172;28;80472;-70
2023/03/18 15:21:38;;;;;;;7.85;4.38;;;23.90;30.90;;;;;;6102617;28;84761;-67
2023/03/18 15:24:38;;;;;;;8.93;5.00;;;23.90;30.80;;;;;;6102274;28;80488;-72
2023/03/18 15:27:39;;;;;;;9.55;4.85;;;23.90;30.70;;;;;;6103853;28;80330;-70
2023/03/18 15:30:40;;;;;;;11.77;4.93;;;23.80;30.90;;;;;;6103078;28;80033;-72